Yangtze Xing Zhong — VRJR4 — position and weather

sailwx.info

Track history (hours):
 
Tides and Currents Weather Stations Pressure Air Temp Water Temp Dewpoint Dewpoint Depression Visibility Wind Speed Wind Dir Waves Ship Positions

Yangtze Xing Zhong

Last reported at 2018-Feb-15 00:38 UTC. Time now 2018-Feb-19 05:38 UTC.
Position N 70°17' E 016°21'.

Length 229 m; draft 13.8 m.

Type: Cargo ship. MMSI: 477167400.

Date/timePositionNaut miles runAvg speedWind from/ knotsBaromVisibWave heightAir tempDewpointWater temp
2018-Feb-15 00:38N 70°17' E 016°21'1 7.7
2018-Feb-15 00:30N 70°17' E 016°23'4 8.2
2018-Feb-15 00:00N 70°20' E 016°32'4 8.4
2018-Feb-14 23:30N 70°23' E 016°41'4 8.5
2018-Feb-14 23:00N 70°26' E 016°50'5 9.1
2018-Feb-14 22:30N 70°29' E 017°00'5 9.7
2018-Feb-14 22:00N 70°33' E 017°09'4 8.5
2018-Feb-14 21:30N 70°36' E 017°20'4 8.5
2018-Feb-14 21:00N 70°38' E 017°30'5 9.3
2018-Feb-14 20:30N 70°41' E 017°40'5 9.5
2018-Feb-14 20:00N 70°45' E 017°51'5 9.7
2018-Feb-14 19:30N 70°48' E 018°02'327 8.4
2018-Feb-13 04:31N 69°03' E 033°04'0 7.2
2018-Feb-13 04:30N 69°03' E 033°04'3 6.1
2018-Feb-13 04:00N 68°60' E 033°03'1 1.6
2018-Feb-13 03:30N 68°59' E 033°03'0 0.3
2018-Feb-13 02:59N 68°59' E 033°04'0 0.0
2018-Feb-13 02:30N 68°59' E 033°04'0 0.0
2018-Feb-13 02:00N 68°59' E 033°04'0 0.0
2018-Feb-13 01:30N 68°59' E 033°04'0 0.0
2018-Feb-13 01:00N 68°59' E 033°04'0 0.0
2018-Feb-13 00:30N 68°59' E 033°04'0 0.0
2018-Feb-13 00:00N 68°59' E 033°04'0 0.0
2018-Feb-12 23:28N 68°59' E 033°04'0 0.0
2018-Feb-12 22:58N 68°59' E 033°04'0 0.0
2018-Feb-12 22:30N 68°59' E 033°04'0 0.0
2018-Feb-12 21:57N 68°59' E 033°04'0 0.0
2018-Feb-12 21:30N 68°59' E 033°04'0 0.0
2018-Feb-12 20:58N 68°59' E 033°04'0 0.0
2018-Feb-12 20:28N 68°59' E 033°04'0 0.0
2018-Feb-12 20:00N 68°59' E 033°04'0 0.0
2018-Feb-12 19:28N 68°59' E 033°04'0 0.0
2018-Feb-12 18:58N 68°59' E 033°04'0 0.0
2018-Feb-12 18:28N 68°59' E 033°04'0 0.0
2018-Feb-12 18:01N 68°59' E 033°04'0 0.0
2018-Feb-12 17:29N 68°59' E 033°04'0 0.0
2018-Feb-12 16:59N 68°59' E 033°04'0 0.0
2018-Feb-12 16:30N 68°59' E 033°04'0 0.0
2018-Feb-12 15:58N 68°59' E 033°04'0 0.0
2018-Feb-12 15:15N 68°59' E 033°04'0 0.0
2018-Feb-12 14:56N 68°59' E 033°04'0 0.0
2018-Feb-12 14:29N 68°59' E 033°04'0 0.0
2018-Feb-12 14:00N 68°59' E 033°04'0 0.0
2018-Feb-12 13:30N 68°59' E 033°04'0 0.0
2018-Feb-12 13:00N 68°59' E 033°04'0 0.0
2018-Feb-12 12:30N 68°59' E 033°04'0 0.0
2018-Feb-12 11:58N 68°59' E 033°04'0 0.0
2018-Feb-12 11:30N 68°59' E 033°04'0 0.0
2018-Feb-12 11:00N 68°59' E 033°04'0 0.0
2018-Feb-12 10:29N 68°59' E 033°04'0 0.0
2018-Feb-12 09:59N 68°59' E 033°04'0 0.0
2018-Feb-12 09:26N 68°59' E 033°04'0 0.0
2018-Feb-12 08:59N 68°59' E 033°04'0 0.0
2018-Feb-12 08:29N 68°59' E 033°04'0 0.0
2018-Feb-12 07:58N 68°59' E 033°04'0 0.0
2018-Feb-12 07:28N 68°59' E 033°04'0 0.0
2018-Feb-12 06:59N 68°59' E 033°04'0 0.0
2018-Feb-12 06:28N 68°59' E 033°04'0 0.0
2018-Feb-12 05:58N 68°59' E 033°04'0 0.0
2018-Feb-12 05:23N 68°59' E 033°04'0 0.0
2018-Feb-12 04:47N 68°59' E 033°04'0 0.0
2018-Feb-12 03:47N 68°59' E 033°04'0 0.0
2018-Feb-12 03:30N 68°59' E 033°04'0 0.0
2018-Feb-12 02:58N 68°59' E 033°04'0 0.0
2018-Feb-12 02:28N 68°59' E 033°04'0 0.0
2018-Feb-12 01:49N 68°59' E 033°04'0 0.0
2018-Feb-12 01:24N 68°59' E 033°04'0 0.0
2018-Feb-11 23:45N 68°59' E 033°04'0 0.0
2018-Feb-11 22:41N 68°59' E 033°04'0 0.0
2018-Feb-11 20:29N 68°59' E 033°04'0 0.0
2018-Feb-11 20:00N 68°59' E 033°04'0 0.0
2018-Feb-11 19:28N 68°59' E 033°04'0 0.0
2018-Feb-11 18:16N 68°59' E 033°04'0 0.0
2018-Feb-11 17:59N 68°59' E 033°04'0 0.0
2018-Feb-11 16:44N 68°59' E 033°04'0 0.0
2018-Feb-11 16:24N 68°59' E 033°04'0 0.0
2018-Feb-11 13:42N 68°59' E 033°04'0 0.0
2018-Feb-11 13:30N 68°59' E 033°04'0 0.0
2018-Feb-11 13:00N 68°59' E 033°04'0 0.0
2018-Feb-11 12:30N 68°59' E 033°04'0 0.0
2018-Feb-11 11:56N 68°59' E 033°04'0 0.0
2018-Feb-11 11:22N 68°59' E 033°04'0 0.0
2018-Feb-11 09:11N 68°59' E 033°04'0 0.0
2018-Feb-11 08:51N 68°59' E 033°04'0 0.0
2018-Feb-11 08:24N 68°59' E 033°04'0 0.0
2018-Feb-11 07:59N 68°59' E 033°04'0 0.0
2018-Feb-11 07:30N 68°59' E 033°04'0 0.0
2018-Feb-11 05:41N 68°59' E 033°04'0 0.0
2018-Feb-11 05:28N 68°59' E 033°04'0 0.0
2018-Feb-11 04:46N 68°59' E 033°04'0 0.0
2018-Feb-11 04:28N 68°59' E 033°04'0 0.0
2018-Feb-11 03:58N 68°59' E 033°04'0 0.0
2018-Feb-11 03:09N 68°59' E 033°04'0 0.0
2018-Feb-11 02:57N 68°59' E 033°04'0 0.0
2018-Feb-11 02:30N 68°59' E 033°04'0 0.0
2018-Feb-11 02:00N 68°59' E 033°04'0 0.0
2018-Feb-10 20:49N 68°59' E 033°04'0 0.0
2018-Feb-10 20:10N 68°59' E 033°04'0 0.0
2018-Feb-10 19:59N 68°59' E 033°04'0 0.0
2018-Feb-10 19:29N 68°59' E 033°04'0 0.0
2018-Feb-10 19:00N 68°59' E 033°04'0 0.0
2018-Feb-10 18:30N 68°59' E 033°04'0 0.0
2018-Feb-10 17:58N 68°59' E 033°04'0 0.0
2018-Feb-10 17:28N 68°59' E 033°04'0 0.0
2018-Feb-10 16:58N 68°59' E 033°04'0 0.0
2018-Feb-10 13:55N 68°59' E 033°04'0 0.0
2018-Feb-10 13:30N 68°59' E 033°04'0 0.0
2018-Feb-10 13:00N 68°59' E 033°04'0 0.0
2018-Feb-10 12:30N 68°59' E 033°04'0 0.0
2018-Feb-10 12:00N 68°59' E 033°04'0 0.0
2018-Feb-10 11:30N 68°59' E 033°04'0 0.0
2018-Feb-10 11:00N 68°59' E 033°04'0 0.0
2018-Feb-10 10:30N 68°59' E 033°04'0 0.0
2018-Feb-10 10:00N 68°59' E 033°04'0 0.0
2018-Feb-10 09:30N 68°59' E 033°04'0 0.0
2018-Feb-10 09:00N 68°59' E 033°04'0 0.0
2018-Feb-10 08:30N 68°59' E 033°04'0 0.0
2018-Feb-10 07:57N 68°59' E 033°04'0 0.0
2018-Feb-10 07:30N 68°59' E 033°04'0 0.0
2018-Feb-10 07:00N 68°59' E 033°04'0 0.0
2018-Feb-10 06:30N 68°59' E 033°04'0 0.0
2018-Feb-10 05:57N 68°59' E 033°04'0 0.0
2018-Feb-10 05:30N 68°59' E 033°04'0 0.0
2018-Feb-10 05:00N 68°59' E 033°04'0 0.0
2018-Feb-10 04:27N 68°59' E 033°04'0 0.0
2018-Feb-10 04:00N 68°59' E 033°04'0 0.0
2018-Feb-10 03:30N 68°59' E 033°04'0 0.0
2018-Feb-10 03:00N 68°59' E 033°04'0 0.0
2018-Feb-10 02:30N 68°59' E 033°04'0 0.0
2018-Feb-10 02:00N 68°59' E 033°04'0 0.0
2018-Feb-10 01:30N 68°59' E 033°04'0 0.0
2018-Feb-10 01:00N 68°59' E 033°04'0 0.0
2018-Feb-10 00:30N 68°59' E 033°04'0 0.0
2018-Feb-10 00:00N 68°59' E 033°04'0 0.0
2018-Feb-09 23:30N 68°59' E 033°04'0 0.0
2018-Feb-09 23:00N 68°59' E 033°04'0 0.0
2018-Feb-09 22:45N 68°59' E 033°04'0 0.0
2018-Feb-08 01:24N 68°59' E 033°03'0 0.0
2018-Feb-08 00:47N 68°59' E 033°03'0 0.0
2018-Feb-08 00:15N 68°59' E 033°03'0 0.0
2018-Feb-07 23:57N 68°59' E 033°03'0 0.0
2018-Feb-07 23:23N 68°59' E 033°03'0 0.0
2018-Feb-07 22:53N 68°59' E 033°03'0 0.1
2018-Feb-07 22:30N 68°59' E 033°03'1 1.9
2018-Feb-07 21:59N 68°60' E 033°02'3 5.4
2018-Feb-07 21:30N 69°02' E 033°03'  
Track history (hours):
 
Tides and Currents Weather Stations Pressure Air Temp Water Temp Dewpoint Dewpoint Depression Visibility Wind Speed Wind Dir Waves Ship Positions

Yangtze Xing Zhong

Last reported at 2018-Feb-15 00:38 UTC. Time now 2018-Feb-19 05:38 UTC.
Position N 70°17' E 016°21'.

Length 229 m; draft 13.8 m.

Type: Cargo ship. MMSI: 477167400.

Date/timePositionNaut miles runAvg speedWind from/ knotsBaromVisibWave heightAir tempDewpointWater temp
2018-Feb-15 00:38N 70°17' E 016°21'1 7.7
2018-Feb-15 00:30N 70°17' E 016°23'4 8.2
2018-Feb-15 00:00N 70°20' E 016°32'4 8.4
2018-Feb-14 23:30N 70°23' E 016°41'4 8.5
2018-Feb-14 23:00N 70°26' E 016°50'5 9.1
2018-Feb-14 22:30N 70°29' E 017°00'5 9.7
2018-Feb-14 22:00N 70°33' E 017°09'4 8.5
2018-Feb-14 21:30N 70°36' E 017°20'4 8.5
2018-Feb-14 21:00N 70°38' E 017°30'5 9.3
2018-Feb-14 20:30N 70°41' E 017°40'5 9.5
2018-Feb-14 20:00N 70°45' E 017°51'5 9.7
2018-Feb-14 19:30N 70°48' E 018°02'327 8.4
2018-Feb-13 04:31N 69°03' E 033°04'0 7.2
2018-Feb-13 04:30N 69°03' E 033°04'3 6.1
2018-Feb-13 04:00N 68°60' E 033°03'1 1.6
2018-Feb-13 03:30N 68°59' E 033°03'0 0.3
2018-Feb-13 02:59N 68°59' E 033°04'0 0.0
2018-Feb-13 02:30N 68°59' E 033°04'0 0.0
2018-Feb-13 02:00N 68°59' E 033°04'0 0.0
2018-Feb-13 01:30N 68°59' E 033°04'0 0.0
2018-Feb-13 01:00N 68°59' E 033°04'0 0.0
2018-Feb-13 00:30N 68°59' E 033°04'0 0.0
2018-Feb-13 00:00N 68°59' E 033°04'0 0.0
2018-Feb-12 23:28N 68°59' E 033°04'0 0.0
2018-Feb-12 22:58N 68°59' E 033°04'0 0.0
2018-Feb-12 22:30N 68°59' E 033°04'0 0.0
2018-Feb-12 21:57N 68°59' E 033°04'0 0.0
2018-Feb-12 21:30N 68°59' E 033°04'0 0.0
2018-Feb-12 20:58N 68°59' E 033°04'0 0.0
2018-Feb-12 20:28N 68°59' E 033°04'0 0.0
2018-Feb-12 20:00N 68°59' E 033°04'0 0.0
2018-Feb-12 19:28N 68°59' E 033°04'0 0.0
2018-Feb-12 18:58N 68°59' E 033°04'0 0.0
2018-Feb-12 18:28N 68°59' E 033°04'0 0.0
2018-Feb-12 18:01N 68°59' E 033°04'0 0.0
2018-Feb-12 17:29N 68°59' E 033°04'0 0.0
2018-Feb-12 16:59N 68°59' E 033°04'0 0.0
2018-Feb-12 16:30N 68°59' E 033°04'0 0.0
2018-Feb-12 15:58N 68°59' E 033°04'0 0.0
2018-Feb-12 15:15N 68°59' E 033°04'0 0.0
2018-Feb-12 14:56N 68°59' E 033°04'0 0.0
2018-Feb-12 14:29N 68°59' E 033°04'0 0.0
2018-Feb-12 14:00N 68°59' E 033°04'0 0.0
2018-Feb-12 13:30N 68°59' E 033°04'0 0.0
2018-Feb-12 13:00N 68°59' E 033°04'0 0.0
2018-Feb-12 12:30N 68°59' E 033°04'0 0.0
2018-Feb-12 11:58N 68°59' E 033°04'0 0.0
2018-Feb-12 11:30N 68°59' E 033°04'0 0.0
2018-Feb-12 11:00N 68°59' E 033°04'0 0.0
2018-Feb-12 10:29N 68°59' E 033°04'0 0.0
2018-Feb-12 09:59N 68°59' E 033°04'0 0.0
2018-Feb-12 09:26N 68°59' E 033°04'0 0.0
2018-Feb-12 08:59N 68°59' E 033°04'0 0.0
2018-Feb-12 08:29N 68°59' E 033°04'0 0.0
2018-Feb-12 07:58N 68°59' E 033°04'0 0.0
2018-Feb-12 07:28N 68°59' E 033°04'0 0.0
2018-Feb-12 06:59N 68°59' E 033°04'0 0.0
2018-Feb-12 06:28N 68°59' E 033°04'0 0.0
2018-Feb-12 05:58N 68°59' E 033°04'0 0.0
2018-Feb-12 05:23N 68°59' E 033°04'0 0.0
2018-Feb-12 04:47N 68°59' E 033°04'0 0.0
2018-Feb-12 03:47N 68°59' E 033°04'0 0.0
2018-Feb-12 03:30N 68°59' E 033°04'0 0.0
2018-Feb-12 02:58N 68°59' E 033°04'0 0.0
2018-Feb-12 02:28N 68°59' E 033°04'0 0.0
2018-Feb-12 01:49N 68°59' E 033°04'0 0.0
2018-Feb-12 01:24N 68°59' E 033°04'0 0.0
2018-Feb-11 23:45N 68°59' E 033°04'0 0.0
2018-Feb-11 22:41N 68°59' E 033°04'0 0.0
2018-Feb-11 20:29N 68°59' E 033°04'0 0.0
2018-Feb-11 20:00N 68°59' E 033°04'0 0.0
2018-Feb-11 19:28N 68°59' E 033°04'0 0.0
2018-Feb-11 18:16N 68°59' E 033°04'0 0.0
2018-Feb-11 17:59N 68°59' E 033°04'0 0.0
2018-Feb-11 16:44N 68°59' E 033°04'0 0.0
2018-Feb-11 16:24N 68°59' E 033°04'0 0.0
2018-Feb-11 13:42N 68°59' E 033°04'0 0.0
2018-Feb-11 13:30N 68°59' E 033°04'0 0.0
2018-Feb-11 13:00N 68°59' E 033°04'0 0.0
2018-Feb-11 12:30N 68°59' E 033°04'0 0.0
2018-Feb-11 11:56N 68°59' E 033°04'0 0.0
2018-Feb-11 11:22N 68°59' E 033°04'0 0.0
2018-Feb-11 09:11N 68°59' E 033°04'0 0.0
2018-Feb-11 08:51N 68°59' E 033°04'0 0.0
2018-Feb-11 08:24N 68°59' E 033°04'0 0.0
2018-Feb-11 07:59N 68°59' E 033°04'0 0.0
2018-Feb-11 07:30N 68°59' E 033°04'0 0.0
2018-Feb-11 05:41N 68°59' E 033°04'0 0.0
2018-Feb-11 05:28N 68°59' E 033°04'0 0.0
2018-Feb-11 04:46N 68°59' E 033°04'0 0.0
2018-Feb-11 04:28N 68°59' E 033°04'0 0.0
2018-Feb-11 03:58N 68°59' E 033°04'0 0.0
2018-Feb-11 03:09N 68°59' E 033°04'0 0.0
2018-Feb-11 02:57N 68°59' E 033°04'0 0.0
2018-Feb-11 02:30N 68°59' E 033°04'0 0.0
2018-Feb-11 02:00N 68°59' E 033°04'0 0.0
2018-Feb-10 20:49N 68°59' E 033°04'0 0.0
2018-Feb-10 20:10N 68°59' E 033°04'0 0.0
2018-Feb-10 19:59N 68°59' E 033°04'0 0.0
2018-Feb-10 19:29N 68°59' E 033°04'0 0.0
2018-Feb-10 19:00N 68°59' E 033°04'0 0.0
2018-Feb-10 18:30N 68°59' E 033°04'0 0.0
2018-Feb-10 17:58N 68°59' E 033°04'0 0.0
2018-Feb-10 17:28N 68°59' E 033°04'0 0.0
2018-Feb-10 16:58N 68°59' E 033°04'0 0.0
2018-Feb-10 13:55N 68°59' E 033°04'0 0.0
2018-Feb-10 13:30N 68°59' E 033°04'0 0.0
2018-Feb-10 13:00N 68°59' E 033°04'0 0.0
2018-Feb-10 12:30N 68°59' E 033°04'0 0.0
2018-Feb-10 12:00N 68°59' E 033°04'0 0.0
2018-Feb-10 11:30N 68°59' E 033°04'0 0.0
2018-Feb-10 11:00N 68°59' E 033°04'0 0.0
2018-Feb-10 10:30N 68°59' E 033°04'0 0.0
2018-Feb-10 10:00N 68°59' E 033°04'0 0.0
2018-Feb-10 09:30N 68°59' E 033°04'0 0.0
2018-Feb-10 09:00N 68°59' E 033°04'0 0.0
2018-Feb-10 08:30N 68°59' E 033°04'0 0.0
2018-Feb-10 07:57N 68°59' E 033°04'0 0.0
2018-Feb-10 07:30N 68°59' E 033°04'0 0.0
2018-Feb-10 07:00N 68°59' E 033°04'0 0.0
2018-Feb-10 06:30N 68°59' E 033°04'0 0.0
2018-Feb-10 05:57N 68°59' E 033°04'0 0.0
2018-Feb-10 05:30N 68°59' E 033°04'0 0.0
2018-Feb-10 05:00N 68°59' E 033°04'0 0.0
2018-Feb-10 04:27N 68°59' E 033°04'0 0.0
2018-Feb-10 04:00N 68°59' E 033°04'0 0.0
2018-Feb-10 03:30N 68°59' E 033°04'0 0.0
2018-Feb-10 03:00N 68°59' E 033°04'0 0.0
2018-Feb-10 02:30N 68°59' E 033°04'0 0.0
2018-Feb-10 02:00N 68°59' E 033°04'0 0.0
2018-Feb-10 01:30N 68°59' E 033°04'0 0.0
2018-Feb-10 01:00N 68°59' E 033°04'0 0.0
2018-Feb-10 00:30N 68°59' E 033°04'0 0.0
2018-Feb-10 00:00N 68°59' E 033°04'0 0.0
2018-Feb-09 23:30N 68°59' E 033°04'0 0.0
2018-Feb-09 23:00N 68°59' E 033°04'0 0.0
2018-Feb-09 22:45N 68°59' E 033°04'0 0.0
2018-Feb-08 01:24N 68°59' E 033°03'0 0.0
2018-Feb-08 00:47N 68°59' E 033°03'0 0.0
2018-Feb-08 00:15N 68°59' E 033°03'0 0.0
2018-Feb-07 23:57N 68°59' E 033°03'0 0.0
2018-Feb-07 23:23N 68°59' E 033°03'0 0.0
2018-Feb-07 22:53N 68°59' E 033°03'0 0.1
2018-Feb-07 22:30N 68°59' E 033°03'1 1.9
2018-Feb-07 21:59N 68°60' E 033°02'3 5.4
2018-Feb-07 21:30N 69°02' E 033°03'  

Dump ship's entire track history